Time;durP1;ratioP1;P1;durP2;ratioP2;P2;SDS_P1;SDS_P2;PMS_P1;PMS_P2;Temp;Humidity;BMP_temperature;BMP_pressure;BME280_temperature;BME280_humidity;BME280_pressure;Samples;Min_cycle;Max_cycle;Signal;HPM_P1;HPM_P2
2023/03/04 00:02:38;;;;;;;10.07;4.50;;;;;;;;;;10452515;28;20061;-50
2023/03/04 00:07:38;;;;;;;12.05;4.28;;;;;;;;;;10452326;28;20021;-53
2023/03/04 00:12:39;;;;;;;8.95;4.95;;;;;;;;;;10451918;28;20132;-53
2023/03/04 00:17:40;;;;;;;9.35;5.13;;;;;;;;;;10451817;28;20041;-52
2023/03/04 00:22:40;;;;;;;11.45;4.53;;;;;;;;;;10452301;28;20024;-51
2023/03/04 00:27:41;;;;;;;9.05;4.75;;;;;;;;;;10452008;28;20429;-52
2023/03/04 00:32:41;;;;;;;8.27;4.45;;;;;;;;;;10451657;28;20040;-53
2023/03/04 00:37:42;;;;;;;7.57;4.50;;;;;;;;;;10451019;28;20068;-52
2023/03/04 00:42:42;;;;;;;9.75;4.75;;;;;;;;;;10450664;28;20086;-51
2023/03/04 00:47:43;;;;;;;8.25;4.05;;;;;;;;;;10451232;28;20020;-52
2023/03/04 00:52:44;;;;;;;10.95;4.80;;;;;;;;;;10450353;28;20268;-52
2023/03/04 00:57:45;;;;;;;8.65;4.57;;;;;;;;;;10451355;28;20052;-51
2023/03/04 01:02:46;;;;;;;6.95;4.43;;;;;;;;;;10450078;28;20033;-53
2023/03/04 01:07:47;;;;;;;9.55;4.55;;;;;;;;;;10450591;28;20099;-52
2023/03/04 01:12:47;;;;;;;7.53;4.65;;;;;;;;;;10450523;28;20021;-50
2023/03/04 01:17:48;;;;;;;17.55;5.82;;;;;;;;;;10450003;28;20058;-52
2023/03/04 01:22:49;;;;;;;8.05;4.25;;;;;;;;;;10449696;28;20029;-52
2023/03/04 01:27:49;;;;;;;12.43;4.63;;;;;;;;;;10449653;28;20029;-52
2023/03/04 01:32:50;;;;;;;7.18;4.30;;;;;;;;;;10450118;28;20071;-52
2023/03/04 01:37:51;;;;;;;9.35;4.22;;;;;;;;;;10449360;28;20025;-52
2023/03/04 01:42:51;;;;;;;5.72;4.15;;;;;;;;;;10449203;28;20103;-52
2023/03/04 01:47:52;;;;;;;9.52;4.20;;;;;;;;;;10449729;28;20047;-50
2023/03/04 01:52:53;;;;;;;7.47;3.95;;;;;;;;;;10448548;28;20100;-52
2023/03/04 01:57:56;;;;;;;9.65;4.68;;;;;;;;;;10449099;28;20036;-50
2023/03/04 02:03:03;;;;;;;8.75;4.30;;;;;;;;;;10448976;28;20495;-52
2023/03/04 02:08:04;;;;;;;6.22;4.10;;;;;;;;;;10431706;28;20388;-50
2023/03/04 02:13:05;;;;;;;6.88;4.60;;;;;;;;;;10431518;28;20021;-52
2023/03/04 02:18:19;;;;;;;7.88;4.10;;;;;;;;;;10437452;28;20028;-51
2023/03/04 02:23:50;;;;;;;6.13;4.03;;;;;;;;;;10456259;28;20024;-49
2023/03/04 02:28:53;;;;;;;6.35;3.80;;;;;;;;;;10456740;28;20033;-53
2023/03/04 02:33:57;;;;;;;7.13;3.85;;;;;;;;;;10455551;28;20047;-52
2023/03/04 02:39:20;;;;;;;9.07;4.20;;;;;;;;;;10437782;28;20111;-52
2023/03/04 02:44:31;;;;;;;6.45;3.47;;;;;;;;;;10439558;28;20041;-51
2023/03/04 02:49:33;;;;;;;7.07;3.83;;;;;;;;;;10454680;28;20083;-50
2023/03/04 02:54:34;;;;;;;5.90;3.95;;;;;;;;;;10437447;28;20117;-51
2023/03/04 02:59:36;;;;;;;5.22;3.72;;;;;;;;;;10455444;28;20108;-51
2023/03/04 03:04:39;;;;;;;5.85;3.63;;;;;;;;;;10455709;28;20037;-50
2023/03/04 03:09:40;;;;;;;7.53;3.90;;;;;;;;;;10437506;28;20041;-51
2023/03/04 03:14:40;;;;;;;4.15;3.60;;;;;;;;;;10455322;28;20040;-51
2023/03/04 03:19:41;;;;;;;5.82;4.00;;;;;;;;;;10454264;28;20032;-51
2023/03/04 03:24:42;;;;;;;6.75;4.00;;;;;;;;;;10453625;28;20042;-51
2023/03/04 03:29:42;;;;;;;5.88;4.07;;;;;;;;;;10454218;28;20032;-52
2023/03/04 03:34:43;;;;;;;6.57;3.42;;;;;;;;;;10452925;28;20037;-52
2023/03/04 03:39:43;;;;;;;4.57;3.50;;;;;;;;;;10453592;28;20044;-52
2023/03/04 03:44:44;;;;;;;4.22;3.67;;;;;;;;;;10453237;28;20041;-51
2023/03/04 03:49:45;;;;;;;8.50;4.13;;;;;;;;;;10453089;28;20025;-51
2023/03/04 03:54:45;;;;;;;6.50;4.10;;;;;;;;;;10453012;28;20377;-51
2023/03/04 03:59:46;;;;;;;9.15;4.68;;;;;;;;;;10452500;28;20102;-52
2023/03/04 04:04:47;;;;;;;8.85;4.25;;;;;;;;;;10452555;28;20033;-53
2023/03/04 04:09:48;;;;;;;7.60;4.60;;;;;;;;;;10451407;28;20029;-53
2023/03/04 04:14:49;;;;;;;10.02;4.72;;;;;;;;;;10450944;28;20029;-52
2023/03/04 04:19:49;;;;;;;6.10;4.78;;;;;;;;;;10451491;28;20372;-51
2023/03/04 04:24:50;;;;;;;9.23;4.90;;;;;;;;;;10451575;28;20469;-51
2023/03/04 04:29:50;;;;;;;8.00;4.88;;;;;;;;;;10450779;28;20495;-51
2023/03/04 04:34:51;;;;;;;7.47;4.78;;;;;;;;;;10450863;28;20450;-52
2023/03/04 04:39:54;;;;;;;11.38;4.65;;;;;;;;;;10450866;28;20044;-51
2023/03/04 04:44:56;;;;;;;7.15;4.43;;;;;;;;;;10450748;28;20053;-51
2023/03/04 04:49:56;;;;;;;7.00;5.18;;;;;;;;;;10451785;28;20064;-51
2023/03/04 04:54:57;;;;;;;7.47;5.45;;;;;;;;;;10450857;28;20028;-52
2023/03/04 04:59:57;;;;;;;8.38;5.35;;;;;;;;;;10449927;28;20017;-52
2023/03/04 05:04:58;;;;;;;7.65;5.47;;;;;;;;;;10450867;28;20391;-51
2023/03/04 05:09:59;;;;;;;10.45;4.95;;;;;;;;;;10450199;28;20380;-52
2023/03/04 05:14:59;;;;;;;12.80;5.38;;;;;;;;;;10449963;28;20373;-49
2023/03/04 05:20:00;;;;;;;12.93;6.03;;;;;;;;;;10450476;28;20128;-51
2023/03/04 05:25:00;;;;;;;15.05;5.47;;;;;;;;;;10449771;28;20032;-50
2023/03/04 05:30:01;;;;;;;11.73;5.60;;;;;;;;;;10449647;28;20021;-49
2023/03/04 05:35:02;;;;;;;14.57;4.88;;;;;;;;;;10450099;28;20029;-50
2023/03/04 05:40:04;;;;;;;7.70;5.15;;;;;;;;;;10449477;28;20036;-48
2023/03/04 05:45:05;;;;;;;17.08;5.45;;;;;;;;;;10449090;28;20053;-51
2023/03/04 05:50:07;;;;;;;8.85;5.15;;;;;;;;;;10450754;28;20025;-52
2023/03/04 05:55:08;;;;;;;12.57;5.53;;;;;;;;;;10457083;28;20033;-50
2023/03/04 06:00:15;;;;;;;16.80;5.13;;;;;;;;;;10457727;28;20029;-51
2023/03/04 06:05:15;;;;;;;14.48;5.82;;;;;;;;;;10457286;28;20036;-49
2023/03/04 06:10:17;;;;;;;8.00;5.13;;;;;;;;;;10456691;28;20048;-50
2023/03/04 06:15:18;;;;;;;9.45;5.22;;;;;;;;;;10456636;28;20445;-49
2023/03/04 06:20:18;;;;;;;10.93;5.53;;;;;;;;;;10456502;28;20104;-52
2023/03/04 06:25:19;;;;;;;8.48;4.70;;;;;;;;;;10456161;28;20488;-51
2023/03/04 06:30:20;;;;;;;18.58;4.75;;;;;;;;;;10455990;28;20109;-51
2023/03/04 06:35:21;;;;;;;12.48;4.93;;;;;;;;;;10455736;28;20451;-51
2023/03/04 06:40:22;;;;;;;9.18;5.03;;;;;;;;;;10455630;28;20029;-49
2023/03/04 06:45:22;;;;;;;11.23;4.85;;;;;;;;;;10455316;28;20049;-51
2023/03/04 06:50:23;;;;;;;11.88;4.43;;;;;;;;;;10455368;28;20020;-51
2023/03/04 06:55:24;;;;;;;8.25;4.68;;;;;;;;;;10454971;28;20043;-51
2023/03/04 07:00:24;;;;;;;12.02;4.60;;;;;;;;;;10454637;28;20033;-51
2023/03/04 07:05:25;;;;;;;11.52;4.53;;;;;;;;;;10454606;28;20094;-50
2023/03/04 07:10:26;;;;;;;5.40;4.10;;;;;;;;;;10454434;28;20036;-52
2023/03/04 07:15:27;;;;;;;5.97;4.28;;;;;;;;;;10454169;28;20025;-53
2023/03/04 07:20:27;;;;;;;6.00;4.38;;;;;;;;;;10454745;28;20021;-49
2023/03/04 07:25:28;;;;;;;7.07;4.68;;;;;;;;;;10453884;28;20021;-51
2023/03/04 07:30:29;;;;;;;7.65;5.13;;;;;;;;;;10453558;28;20027;-49
2023/03/04 07:35:29;;;;;;;8.13;4.35;;;;;;;;;;10453842;28;20039;-52
2023/03/04 07:40:30;;;;;;;5.18;4.10;;;;;;;;;;10453865;28;20033;-50
2023/03/04 07:45:30;;;;;;;4.40;3.78;;;;;;;;;;10452915;28;20236;-51
2023/03/04 07:50:31;;;;;;;7.60;4.13;;;;;;;;;;10453009;28;20475;-52
2023/03/04 07:55:32;;;;;;;7.45;4.47;;;;;;;;;;10452634;28;20036;-52
2023/03/04 08:00:32;;;;;;;5.88;4.07;;;;;;;;;;10452533;28;20086;-51
2023/03/04 08:05:33;;;;;;;6.18;4.00;;;;;;;;;;10452528;28;20112;-51
2023/03/04 08:10:35;;;;;;;7.28;3.90;;;;;;;;;;10451959;28;20519;-52
2023/03/04 08:15:40;;;;;;;4.68;3.35;;;;;;;;;;10451471;28;20047;-52
2023/03/04 08:20:42;;;;;;;6.70;3.78;;;;;;;;;;10452510;28;20033;-51
2023/03/04 08:25:43;;;;;;;7.53;4.20;;;;;;;;;;10451641;28;20029;-52
2023/03/04 08:30:43;;;;;;;5.82;3.72;;;;;;;;;;10451242;28;20029;-51
2023/03/04 08:35:44;;;;;;;7.65;4.03;;;;;;;;;;10450794;28;20100;-51
2023/03/04 08:40:44;;;;;;;5.97;3.70;;;;;;;;;;10450788;28;20025;-50
2023/03/04 08:45:45;;;;;;;5.28;3.40;;;;;;;;;;10451173;28;20045;-51
2023/03/04 08:50:47;;;;;;;6.97;4.05;;;;;;;;;;10450561;28;20025;-52
2023/03/04 08:55:49;;;;;;;5.65;3.47;;;;;;;;;;10450176;28;20388;-52
2023/03/04 09:00:50;;;;;;;5.72;4.47;;;;;;;;;;10450800;28;20068;-52
2023/03/04 09:05:51;;;;;;;6.95;4.05;;;;;;;;;;10450119;28;20029;-48
2023/03/04 09:10:53;;;;;;;8.13;4.15;;;;;;;;;;10450588;28;20024;-54
2023/03/04 09:15:54;;;;;;;6.70;4.20;;;;;;;;;;10449667;28;20035;-51
2023/03/04 09:20:54;;;;;;;6.53;4.28;;;;;;;;;;10450150;28;20031;-49
2023/03/04 09:25:55;;;;;;;7.10;4.53;;;;;;;;;;10449705;28;20049;-51
2023/03/04 09:30:56;;;;;;;5.30;4.13;;;;;;;;;;10449539;28;20031;-51
2023/03/04 09:35:57;;;;;;;8.80;4.43;;;;;;;;;;10449600;28;20037;-52
2023/03/04 09:41:03;;;;;;;6.85;4.45;;;;;;;;;;10449150;28;20472;-51
2023/03/04 09:46:10;;;;;;;7.93;4.65;;;;;;;;;;10447545;28;20037;-51
2023/03/04 09:51:35;;;;;;;6.70;3.75;;;;;;;;;;10431695;28;20441;-50
2023/03/04 09:56:39;;;;;;;6.78;4.32;;;;;;;;;;10449340;28;20025;-52
2023/03/04 10:01:39;;;;;;;7.78;4.45;;;;;;;;;;10448599;28;20435;-52
2023/03/04 10:06:41;;;;;;;4.88;3.83;;;;;;;;;;10448774;28;20029;-51
2023/03/04 10:11:47;;;;;;;6.90;4.10;;;;;;;;;;10448913;28;20064;-53
2023/03/04 10:17:12;;;;;;;8.20;4.72;;;;;;;;;;10431411;28;20031;-51
2023/03/04 10:22:23;;;;;;;8.40;4.10;;;;;;;;;;10447807;28;20079;-52
2023/03/04 10:27:25;;;;;;;7.80;4.20;;;;;;;;;;10448260;28;20031;-52
2023/03/04 10:32:25;;;;;;;7.75;4.18;;;;;;;;;;10447348;28;20051;-51
2023/03/04 10:37:44;;;;;;;5.30;3.97;;;;;;;;;;10451354;28;20087;-50
2023/03/04 10:42:49;;;;;;;7.78;4.30;;;;;;;;;;10455584;28;20045;-51
2023/03/04 10:47:54;;;;;;;6.57;4.22;;;;;;;;;;10455793;28;20033;-48
2023/03/04 10:52:55;;;;;;;7.82;4.15;;;;;;;;;;10455075;28;20429;-52
2023/03/04 10:58:04;;;;;;;5.93;3.78;;;;;;;;;;10436886;28;20021;-52
2023/03/04 11:03:26;;;;;;;4.78;3.30;;;;;;;;;;10455525;28;20048;-51
2023/03/04 11:08:26;;;;;;;5.45;4.28;;;;;;;;;;10454822;28;20033;-52
2023/03/04 11:13:27;;;;;;;5.70;4.03;;;;;;;;;;10453996;28;20052;-53
2023/03/04 11:18:42;;;;;;;6.47;3.67;;;;;;;;;;10454327;28;20033;-49
2023/03/04 11:23:51;;;;;;;8.00;4.22;;;;;;;;;;10453974;28;20021;-60
2023/03/04 11:28:58;;;;;;;4.82;4.20;;;;;;;;;;10436063;28;20021;-51
2023/03/04 11:34:07;;;;;;;6.28;4.65;;;;;;;;;;10453431;28;20029;-52
2023/03/04 11:39:49;;;;;;;5.72;4.10;;;;;;;;;;10435983;28;20029;-53
2023/03/04 11:44:51;;;;;;;6.28;3.80;;;;;;;;;;10431698;28;20061;-52
2023/03/04 11:50:02;;;;;;;4.93;3.70;;;;;;;;;;10434422;28;20285;-50
2023/03/04 11:55:39;;;;;;;7.10;4.20;;;;;;;;;;10434640;28;20449;-52
2023/03/04 12:00:56;;;;;;;5.93;3.63;;;;;;;;;;10452433;28;20033;-51
2023/03/04 12:06:06;;;;;;;5.30;3.83;;;;;;;;;;10434862;28;20013;-51
2023/03/04 12:11:38;;;;;;;6.38;3.75;;;;;;;;;;10451984;28;20104;-52
2023/03/04 12:16:55;;;;;;;5.57;4.25;;;;;;;;;;10452202;28;20020;-51
2023/03/04 12:22:14;;;;;;;5.82;3.78;;;;;;;;;;10451567;28;20040;-51
2023/03/04 12:28:13;;;;;;;6.50;3.95;;;;;;;;;;10451693;28;20079;-52
2023/03/04 12:33:40;;;;;;;4.80;3.67;;;;;;;;;;10451289;28;20078;-52
2023/03/04 12:39:00;;;;;;;4.65;3.80;;;;;;;;;;10450824;28;20068;-51
2023/03/04 12:44:18;;;;;;;4.25;3.42;;;;;;;;;;10449373;28;20149;-50
2023/03/04 12:49:32;;;;;;;5.80;3.40;;;;;;;;;;10433403;28;20037;-53
2023/03/04 12:54:40;;;;;;;6.25;3.90;;;;;;;;;;10450926;28;20083;-51
2023/03/04 13:00:24;;;;;;;5.32;3.67;;;;;;;;;;10432946;28;20032;-52
2023/03/04 13:05:59;;;;;;;4.80;3.88;;;;;;;;;;10401212;28;20092;-51
2023/03/04 13:11:26;;;;;;;5.78;4.07;;;;;;;;;;10450119;28;20021;-51
2023/03/04 13:16:45;;;;;;;8.90;4.53;;;;;;;;;;10449706;28;20353;-50
2023/03/04 13:21:47;;;;;;;5.03;3.80;;;;;;;;;;10449605;28;20165;-51
2023/03/04 13:26:48;;;;;;;10.27;4.70;;;;;;;;;;10449866;28;20029;-52
2023/03/04 13:32:10;;;;;;;9.27;4.38;;;;;;;;;;10449298;28;20047;-51
2023/03/04 13:37:35;;;;;;;9.05;4.10;;;;;;;;;;10431521;28;20476;-52
2023/03/04 13:42:42;;;;;;;7.43;4.50;;;;;;;;;;10448287;28;20029;-51
2023/03/04 13:47:46;;;;;;;7.10;4.10;;;;;;;;;;10449646;28;20036;-52
2023/03/04 13:52:47;;;;;;;6.82;4.40;;;;;;;;;;10431774;28;20025;-49
2023/03/04 13:57:49;;;;;;;5.43;4.45;;;;;;;;;;10448780;28;20176;-52
2023/03/04 14:02:50;;;;;;;5.20;3.85;;;;;;;;;;10431142;28;20115;-52
2023/03/04 14:07:51;;;;;;;7.40;4.38;;;;;;;;;;10449265;28;20029;-51
2023/03/04 14:12:58;;;;;;;5.63;4.45;;;;;;;;;;10452730;28;20040;-50
2023/03/04 14:18:01;;;;;;;4.53;3.95;;;;;;;;;;10439415;28;20025;-52
2023/03/04 14:23:35;;;;;;;7.30;4.28;;;;;;;;;;10455494;28;20020;-51
2023/03/04 14:28:48;;;;;;;5.80;4.88;;;;;;;;;;10456372;28;20048;-50
2023/03/04 14:33:58;;;;;;;5.97;3.72;;;;;;;;;;10455805;28;20036;-52
2023/03/04 14:39:02;;;;;;;5.78;4.50;;;;;;;;;;10438552;28;20152;-51
2023/03/04 14:44:15;;;;;;;9.93;4.30;;;;;;;;;;10455190;28;20465;-51
2023/03/04 14:49:16;;;;;;;7.35;4.85;;;;;;;;;;10455368;28;20033;-51
2023/03/04 14:54:39;;;;;;;5.97;4.13;;;;;;;;;;10453734;28;20025;-52
2023/03/04 14:59:40;;;;;;;5.72;4.22;;;;;;;;;;10454732;28;20507;-51
2023/03/04 15:04:40;;;;;;;6.60;4.57;;;;;;;;;;10436461;28;20032;-53
2023/03/04 15:09:41;;;;;;;6.63;4.28;;;;;;;;;;10454300;28;20120;-50
2023/03/04 15:14:51;;;;;;;6.63;4.13;;;;;;;;;;10454660;28;20057;-49
2023/03/04 15:20:05;;;;;;;8.05;4.63;;;;;;;;;;10454136;28;20442;-51
2023/03/04 15:25:06;;;;;;;8.70;3.83;;;;;;;;;;10453322;28;20109;-48
2023/03/04 15:30:14;;;;;;;7.68;3.97;;;;;;;;;;10453711;28;20155;-52
2023/03/04 15:35:18;;;;;;;7.03;4.35;;;;;;;;;;10452734;28;20036;-51
2023/03/04 15:40:39;;;;;;;7.70;4.07;;;;;;;;;;10453224;28;20033;-51
2023/03/04 15:45:40;;;;;;;5.20;4.30;;;;;;;;;;10452832;28;20497;-51
2023/03/04 15:51:00;;;;;;;5.13;4.35;;;;;;;;;;10452831;28;20037;-49
2023/03/04 15:56:03;;;;;;;8.40;4.32;;;;;;;;;;10451257;28;20104;-51
2023/03/04 16:01:04;;;;;;;4.60;4.05;;;;;;;;;;10452721;28;20024;-52
2023/03/04 16:06:19;;;;;;;5.55;4.53;;;;;;;;;;10452607;28;20385;-51
2023/03/04 16:11:24;;;;;;;6.60;4.63;;;;;;;;;;10451260;28;20071;-51
2023/03/04 16:16:24;;;;;;;6.63;3.97;;;;;;;;;;10434310;28;20029;-52
2023/03/04 16:21:25;;;;;;;5.72;4.53;;;;;;;;;;10451659;28;20021;-52
2023/03/04 16:26:27;;;;;;;5.28;4.10;;;;;;;;;;10452042;28;20033;-67
2023/03/04 16:31:28;;;;;;;5.35;4.22;;;;;;;;;;10451504;28;20139;-52
2023/03/04 16:36:28;;;;;;;5.15;4.18;;;;;;;;;;10450881;28;20029;-67
2023/03/04 16:41:29;;;;;;;5.10;4.18;;;;;;;;;;10450864;28;20037;-52
2023/03/04 16:46:30;;;;;;;7.13;4.07;;;;;;;;;;10449462;28;20068;-52
2023/03/04 16:51:39;;;;;;;4.40;4.00;;;;;;;;;;10450462;28;20054;-51
2023/03/04 16:56:39;;;;;;;5.90;4.22;;;;;;;;;;10433027;28;20484;-48
2023/03/04 17:01:41;;;;;;;7.88;4.47;;;;;;;;;;10450078;28;20025;-52
2023/03/04 17:06:41;;;;;;;5.15;4.15;;;;;;;;;;10432289;28;20025;-52
2023/03/04 17:11:42;;;;;;;6.03;3.90;;;;;;;;;;10450212;28;20029;-49
2023/03/04 17:16:43;;;;;;;5.05;3.72;;;;;;;;;;10450797;28;20029;-51
2023/03/04 17:21:43;;;;;;;5.30;3.63;;;;;;;;;;10449669;28;20025;-52
2023/03/04 17:26:44;;;;;;;5.03;4.07;;;;;;;;;;10449681;28;20029;-52
2023/03/04 17:31:45;;;;;;;4.00;3.30;;;;;;;;;;10449374;28;20021;-52
2023/03/04 17:36:45;;;;;;;5.80;3.50;;;;;;;;;;10450027;28;20029;-52
2023/03/04 17:41:50;;;;;;;5.40;4.38;;;;;;;;;;10449762;28;20025;-51
2023/03/04 17:46:50;;;;;;;5.13;4.15;;;;;;;;;;10453309;28;20064;-52
2023/03/04 17:51:51;;;;;;;4.97;3.80;;;;;;;;;;10458066;28;20036;-52
2023/03/04 17:56:52;;;;;;;5.15;4.03;;;;;;;;;;10457258;28;20439;-52
2023/03/04 18:01:53;;;;;;;6.07;4.25;;;;;;;;;;10457063;28;20082;-52
2023/03/04 18:06:53;;;;;;;5.40;3.60;;;;;;;;;;10457546;28;20025;-48
2023/03/04 18:11:54;;;;;;;4.60;3.97;;;;;;;;;;10457278;28;20025;-52
2023/03/04 18:16:54;;;;;;;6.05;3.72;;;;;;;;;;10456524;28;20087;-51
2023/03/04 18:21:55;;;;;;;5.80;3.80;;;;;;;;;;10456411;28;20040;-52
2023/03/04 18:26:56;;;;;;;4.30;3.60;;;;;;;;;;10456701;28;20040;-51
2023/03/04 18:31:56;;;;;;;8.18;4.25;;;;;;;;;;10456370;28;20025;-51
2023/03/04 18:36:57;;;;;;;5.10;3.80;;;;;;;;;;10455838;28;20384;-50
2023/03/04 18:41:58;;;;;;;4.38;3.70;;;;;;;;;;10456289;28;20036;-51
2023/03/04 18:46:59;;;;;;;5.13;4.10;;;;;;;;;;10455446;28;20037;-50
2023/03/04 18:51:59;;;;;;;4.32;3.90;;;;;;;;;;10455360;28;20021;-52
2023/03/04 18:57:06;;;;;;;4.78;3.85;;;;;;;;;;10454901;28;20056;-49
2023/03/04 19:02:18;;;;;;;4.85;3.90;;;;;;;;;;10437768;28;20031;-50
2023/03/04 19:07:19;;;;;;;4.65;4.07;;;;;;;;;;10455360;28;20031;-52
2023/03/04 19:12:20;;;;;;;7.05;3.75;;;;;;;;;;10455181;28;20468;-51
2023/03/04 19:17:20;;;;;;;4.47;3.90;;;;;;;;;;10454345;28;20044;-52
2023/03/04 19:22:21;;;;;;;4.80;3.60;;;;;;;;;;10454130;28;20082;-51
2023/03/04 19:27:21;;;;;;;5.05;4.35;;;;;;;;;;10454432;28;20025;-51
2023/03/04 19:32:22;;;;;;;5.65;4.40;;;;;;;;;;10453776;28;20389;-52
2023/03/04 19:37:23;;;;;;;4.85;3.92;;;;;;;;;;10453633;28;20106;-52
2023/03/04 19:42:23;;;;;;;5.43;4.03;;;;;;;;;;10464821;23;20072;-64
2023/03/04 19:47:24;;;;;;;4.18;3.78;;;;;;;;;;10453943;28;20032;-63
2023/03/04 19:52:24;;;;;;;4.68;3.78;;;;;;;;;;10453058;28;20091;-64
2023/03/04 19:57:25;;;;;;;4.93;3.97;;;;;;;;;;10452997;28;20032;-63
2023/03/04 20:02:26;;;;;;;7.05;3.50;;;;;;;;;;10453242;28;20033;-64
2023/03/04 20:07:26;;;;;;;6.32;4.30;;;;;;;;;;10452976;28;20032;-65
2023/03/04 20:12:27;;;;;;;6.82;4.38;;;;;;;;;;10451943;28;20215;-64
2023/03/04 20:17:28;;;;;;;6.82;4.35;;;;;;;;;;10452402;28;20046;-65
2023/03/04 20:22:29;;;;;;;4.47;4.07;;;;;;;;;;10451824;28;20484;-59
2023/03/04 20:27:29;;;;;;;6.05;4.50;;;;;;;;;;10452188;28;20025;-60
2023/03/04 20:32:44;;;;;;;7.03;4.28;;;;;;;;;;10485349;28;20594;-58
2023/03/04 20:37:45;;;;;;;4.57;3.90;;;;;;;;;;10444694;28;20053;-58
2023/03/04 20:42:45;;;;;;;4.82;4.05;;;;;;;;;;10444070;28;20067;-58
2023/03/04 20:47:47;;;;;;;5.85;4.28;;;;;;;;;;10443764;28;20044;-59
2023/03/04 20:52:48;;;;;;;5.57;4.10;;;;;;;;;;10444035;28;20025;-58
2023/03/04 20:57:48;;;;;;;6.35;4.78;;;;;;;;;;10443475;28;20029;-58
2023/03/04 21:02:49;;;;;;;6.82;4.65;;;;;;;;;;10443112;28;20021;-58
2023/03/04 21:07:49;;;;;;;5.78;4.50;;;;;;;;;;10443057;28;20029;-58
2023/03/04 21:12:50;;;;;;;5.00;4.50;;;;;;;;;;10442849;28;20068;-58
2023/03/04 21:17:50;;;;;;;6.68;4.82;;;;;;;;;;10443244;28;20029;-58
2023/03/04 21:22:51;;;;;;;5.03;4.50;;;;;;;;;;10442607;28;20036;-58
2023/03/04 21:27:52;;;;;;;5.60;4.47;;;;;;;;;;10442508;28;20045;-58
2023/03/04 21:32:53;;;;;;;6.95;4.88;;;;;;;;;;10441993;28;20116;-58
2023/03/04 21:37:53;;;;;;;5.93;5.22;;;;;;;;;;10441829;28;20032;-59
2023/03/04 21:42:54;;;;;;;7.88;5.07;;;;;;;;;;10420587;28;20034;-58
2023/03/04 21:47:54;;;;;;;7.55;5.25;;;;;;;;;;10413894;28;20377;-58
2023/03/04 21:52:55;;;;;;;6.72;5.10;;;;;;;;;;10413959;28;20687;-58
2023/03/04 21:57:55;;;;;;;6.05;4.93;;;;;;;;;;10413780;28;20488;-58
2023/03/04 22:02:56;;;;;;;8.05;5.85;;;;;;;;;;10413363;28;20408;-58
2023/03/04 22:07:57;;;;;;;8.27;5.60;;;;;;;;;;10413252;28;20146;-58
2023/03/04 22:12:57;;;;;;;8.25;5.57;;;;;;;;;;10413562;28;20030;-57
2023/03/04 22:17:58;;;;;;;6.55;5.10;;;;;;;;;;10412928;28;20029;-58
2023/03/04 22:22:58;;;;;;;8.48;6.07;;;;;;;;;;10412613;28;20381;-58
2023/03/04 22:27:59;;;;;;;8.32;5.70;;;;;;;;;;10412409;28;20041;-58
2023/03/04 22:33:00;;;;;;;7.00;5.65;;;;;;;;;;10412422;28;20029;-58
2023/03/04 22:38:00;;;;;;;8.52;6.10;;;;;;;;;;10412081;28;20045;-58
2023/03/04 22:43:01;;;;;;;7.80;5.88;;;;;;;;;;10411826;28;20045;-58
2023/03/04 22:48:01;;;;;;;7.55;5.90;;;;;;;;;;10411666;28;20021;-58
2023/03/04 22:53:05;;;;;;;9.48;6.50;;;;;;;;;;10410471;28;20109;-58
2023/03/04 22:58:06;;;;;;;11.32;6.70;;;;;;;;;;10411901;28;20107;-58
2023/03/04 23:03:07;;;;;;;7.63;6.22;;;;;;;;;;10411063;28;20388;-58
2023/03/04 23:08:08;;;;;;;8.43;6.13;;;;;;;;;;10411306;28;20036;-58
2023/03/04 23:13:08;;;;;;;9.60;6.53;;;;;;;;;;10410781;28;20036;-58
2023/03/04 23:18:09;;;;;;;9.35;7.03;;;;;;;;;;10410425;28;20025;-58
2023/03/04 23:23:10;;;;;;;11.80;6.75;;;;;;;;;;10410240;28;20029;-58
2023/03/04 23:28:11;;;;;;;11.02;6.90;;;;;;;;;;10409967;28;20049;-58
2023/03/04 23:33:12;;;;;;;9.25;6.82;;;;;;;;;;10410531;28;20109;-58
2023/03/04 23:38:12;;;;;;;8.88;6.55;;;;;;;;;;10410268;28;20025;-58
2023/03/04 23:43:13;;;;;;;10.45;6.93;;;;;;;;;;10410157;28;20037;-58
2023/03/04 23:48:14;;;;;;;8.55;6.85;;;;;;;;;;10409898;28;20037;-58
2023/03/04 23:53:14;;;;;;;10.20;7.05;;;;;;;;;;10409232;28;20018;-58
2023/03/04 23:58:15;;;;;;;9.73;7.05;;;;;;;;;;10409712;28;20025;-58
